sensor_id;sensor_type;location;lat;lon;timestamp;pressure;altitude;pressure_sealevel;temperature;humidity
24788;BME280;12883;52.662;5.196;2023-02-13T00:00:33;103876.78;;;7.91;100.00
24788;BME280;12883;52.662;5.196;2023-02-13T00:02:58;103819.72;;;7.63;100.00
24788;BME280;12883;52.662;5.196;2023-02-13T00:05:24;103875.31;;;7.99;100.00
24788;BME280;12883;52.662;5.196;2023-02-13T00:07:49;103866.41;;;8.00;100.00
24788;BME280;12883;52.662;5.196;2023-02-13T00:10:15;103861.13;;;8.00;100.00
24788;BME280;12883;52.662;5.196;2023-02-13T00:12:40;103857.75;;;7.98;100.00
24788;BME280;12883;52.662;5.196;2023-02-13T00:15:06;103831.44;;;7.84;100.00
24788;BME280;12883;52.662;5.196;2023-02-13T00:17:32;103857.34;;;8.04;100.00
24788;BME280;12883;52.662;5.196;2023-02-13T00:19:57;103853.84;;;7.91;100.00
24788;BME280;12883;52.662;5.196;2023-02-13T00:22:23;103855.13;;;7.98;100.00
24788;BME280;12883;52.662;5.196;2023-02-13T00:24:48;103846.53;;;8.07;100.00
24788;BME280;12883;52.662;5.196;2023-02-13T00:27:14;103851.19;;;8.04;100.00
24788;BME280;12883;52.662;5.196;2023-02-13T00:29:39;103856.06;;;7.97;100.00
24788;BME280;12883;52.662;5.196;2023-02-13T00:32:04;103849.59;;;8.01;100.00
24788;BME280;12883;52.662;5.196;2023-02-13T00:34:30;103854.16;;;7.99;100.00
24788;BME280;12883;52.662;5.196;2023-02-13T00:36:55;103811.47;;;7.68;100.00
24788;BME280;12883;52.662;5.196;2023-02-13T00:39:21;103847.63;;;7.92;100.00
24788;BME280;12883;52.662;5.196;2023-02-13T00:41:46;103853.13;;;7.89;100.00
24788;BME280;12883;52.662;5.196;2023-02-13T00:44:11;103851.00;;;7.82;100.00
24788;BME280;12883;52.662;5.196;2023-02-13T00:46:37;103843.19;;;7.80;100.00
24788;BME280;12883;52.662;5.196;2023-02-13T00:49:03;103847.63;;;7.92;100.00
24788;BME280;12883;52.662;5.196;2023-02-13T00:51:28;103848.34;;;7.94;100.00
24788;BME280;12883;52.662;5.196;2023-02-13T00:53:53;103848.34;;;7.94;100.00
24788;BME280;12883;52.662;5.196;2023-02-13T00:56:19;103838.53;;;7.96;100.00
24788;BME280;12883;52.662;5.196;2023-02-13T00:58:44;103838.53;;;7.96;100.00
24788;BME280;12883;52.662;5.196;2023-02-13T01:01:10;103835.34;;;7.91;100.00
24788;BME280;12883;52.662;5.196;2023-02-13T01:03:35;103839.34;;;7.97;100.00
24788;BME280;12883;52.662;5.196;2023-02-13T01:06:00;103836.59;;;7.98;100.00
24788;BME280;12883;52.662;5.196;2023-02-13T01:08:26;103842.84;;;7.97;100.00
24788;BME280;12883;52.662;5.196;2023-02-13T01:10:52;103838.00;;;7.91;100.00
24788;BME280;12883;52.662;5.196;2023-02-13T01:13:18;103844.56;;;7.86;100.00
24788;BME280;12883;52.662;5.196;2023-02-13T01:15:45;103837.38;;;7.88;100.00
24788;BME280;12883;52.662;5.196;2023-02-13T01:18:17;103830.06;;;7.91;100.00
24788;BME280;12883;52.662;5.196;2023-02-13T01:20:44;103823.28;;;7.87;100.00
24788;BME280;12883;52.662;5.196;2023-02-13T01:23:11;103847.84;;;7.89;100.00
24788;BME280;12883;52.662;5.196;2023-02-13T01:25:42;103839.78;;;7.91;100.00
24788;BME280;12883;52.662;5.196;2023-02-13T01:28:08;103781.88;;;7.63;100.00
24788;BME280;12883;52.662;5.196;2023-02-13T01:30:34;103828.56;;;8.00;100.00
24788;BME280;12883;52.662;5.196;2023-02-13T01:32:59;103833.25;;;7.96;100.00
24788;BME280;12883;52.662;5.196;2023-02-13T01:35:24;103834.06;;;7.97;100.00
24788;BME280;12883;52.662;5.196;2023-02-13T01:37:50;103829.22;;;7.91;100.00
24788;BME280;12883;52.662;5.196;2023-02-13T01:40:15;103827.13;;;7.83;100.00
24788;BME280;12883;52.662;5.196;2023-02-13T01:42:41;103824.38;;;7.85;100.00
24788;BME280;12883;52.662;5.196;2023-02-13T01:45:24;103805.88;;;7.85;100.00
24788;BME280;12883;52.662;5.196;2023-02-13T01:47:56;103833.00;;;7.99;100.00
24788;BME280;12883;52.662;5.196;2023-02-13T01:50:35;103827.66;;;7.88;100.00
24788;BME280;12883;52.662;5.196;2023-02-13T01:53:09;103830.69;;;7.95;100.00
24788;BME280;12883;52.662;5.196;2023-02-13T01:55:43;103829.22;;;8.03;100.00
24788;BME280;12883;52.662;5.196;2023-02-13T01:58:12;103780.81;;;7.65;100.00
24788;BME280;12883;52.662;5.196;2023-02-13T02:00:40;103812.09;;;7.71;100.00
24788;BME280;12883;52.662;5.196;2023-02-13T02:03:16;103830.25;;;8.01;100.00
24788;BME280;12883;52.662;5.196;2023-02-13T02:05:43;103823.38;;;7.98;100.00
24788;BME280;12883;52.662;5.196;2023-02-13T02:08:09;103835.25;;;7.93;100.00
24788;BME280;12883;52.662;5.196;2023-02-13T02:10:36;103820.75;;;7.98;100.00
24788;BME280;12883;52.662;5.196;2023-02-13T02:13:13;103821.81;;;7.96;100.00
24788;BME280;12883;52.662;5.196;2023-02-13T02:15:40;103822.22;;;7.90;100.00
24788;BME280;12883;52.662;5.196;2023-02-13T02:18:30;103803.75;;;7.52;100.00
24788;BME280;12883;52.662;5.196;2023-02-13T02:29:35;103792.66;;;7.72;100.00
24788;BME280;12883;52.662;5.196;2023-02-13T02:32:33;103815.16;;;7.90;100.00
24788;BME280;12883;52.662;5.196;2023-02-13T02:47:57;103807.44;;;7.87;100.00
24788;BME280;12883;52.662;5.196;2023-02-13T02:56:17;103805.41;;;7.91;100.00
24788;BME280;12883;52.662;5.196;2023-02-13T02:58:49;103804.91;;;7.86;100.00
24788;BME280;12883;52.662;5.196;2023-02-13T03:01:35;103801.72;;;7.93;100.00
24788;BME280;12883;52.662;5.196;2023-02-13T03:04:28;103794.59;;;8.06;100.00
24788;BME280;12883;52.662;5.196;2023-02-13T03:07:16;103801.06;;;8.02;100.00
24788;BME280;12883;52.662;5.196;2023-02-13T03:09:46;103764.41;;;7.85;100.00
24788;BME280;12883;52.662;5.196;2023-02-13T03:12:53;103794.53;;;7.95;100.00
24788;BME280;12883;52.662;5.196;2023-02-13T03:15:41;103774.56;;;7.91;100.00
24788;BME280;12883;52.662;5.196;2023-02-13T03:18:29;103794.75;;;7.92;100.00
24788;BME280;12883;52.662;5.196;2023-02-13T03:24:44;103798.09;;;7.94;100.00
24788;BME280;12883;52.662;5.196;2023-02-13T03:29:46;103800.63;;;8.08;100.00
24788;BME280;12883;52.662;5.196;2023-02-13T03:32:54;103803.09;;;7.86;100.00
24788;BME280;12883;52.662;5.196;2023-02-13T03:35:38;103806.41;;;7.77;100.00
24788;BME280;12883;52.662;5.196;2023-02-13T03:41:18;103796.25;;;7.71;100.00
24788;BME280;12883;52.662;5.196;2023-02-13T03:46:45;103807.56;;;7.73;100.00
24788;BME280;12883;52.662;5.196;2023-02-13T03:49:17;103799.31;;;7.65;100.00
24788;BME280;12883;52.662;5.196;2023-02-13T03:52:31;103801.97;;;7.65;100.00
24788;BME280;12883;52.662;5.196;2023-02-13T03:54:59;103801.75;;;7.68;100.00
24788;BME280;12883;52.662;5.196;2023-02-13T03:57:46;103801.97;;;7.65;100.00
24788;BME280;12883;52.662;5.196;2023-02-13T04:00:43;103776.84;;;7.47;100.00
24788;BME280;12883;52.662;5.196;2023-02-13T04:03:20;103801.00;;;7.66;100.00
24788;BME280;12883;52.662;5.196;2023-02-13T04:05:51;103799.22;;;7.67;100.00
24788;BME280;12883;52.662;5.196;2023-02-13T04:08:18;103791.94;;;7.58;100.00
24788;BME280;12883;52.662;5.196;2023-02-13T04:10:53;103726.75;;;7.21;100.00
24788;BME280;12883;52.662;5.196;2023-02-13T04:13:42;103800.91;;;7.68;100.00
24788;BME280;12883;52.662;5.196;2023-02-13T04:16:33;103793.22;;;7.65;100.00
24788;BME280;12883;52.662;5.196;2023-02-13T04:19:00;103795.84;;;7.65;100.00
24788;BME280;12883;52.662;5.196;2023-02-13T04:21:26;103792.56;;;7.61;100.00
24788;BME280;12883;52.662;5.196;2023-02-13T04:23:52;103792.69;;;7.60;100.00
24788;BME280;12883;52.662;5.196;2023-02-13T04:26:20;103784.31;;;7.66;100.00
24788;BME280;12883;52.662;5.196;2023-02-13T04:28:47;103788.31;;;7.71;100.00
24788;BME280;12883;52.662;5.196;2023-02-13T04:31:12;103758.66;;;7.55;100.00
24788;BME280;12883;52.662;5.196;2023-02-13T04:33:37;103789.88;;;7.86;100.00
24788;BME280;12883;52.662;5.196;2023-02-13T04:36:03;103799.63;;;7.73;100.00
24788;BME280;12883;52.662;5.196;2023-02-13T04:38:29;103785.28;;;7.65;100.00
24788;BME280;12883;52.662;5.196;2023-02-13T04:40:54;103781.88;;;7.63;100.00
24788;BME280;12883;52.662;5.196;2023-02-13T04:43:20;103785.06;;;7.68;100.00
24788;BME280;12883;52.662;5.196;2023-02-13T04:45:48;103784.09;;;7.69;100.00
24788;BME280;12883;52.662;5.196;2023-02-13T04:48:14;103762.97;;;7.56;100.00
24788;BME280;12883;52.662;5.196;2023-02-13T04:50:39;103761.78;;;7.60;100.00
24788;BME280;12883;52.662;5.196;2023-02-13T04:53:04;103777.97;;;7.68;100.00
24788;BME280;12883;52.662;5.196;2023-02-13T04:55:30;103766.44;;;7.69;100.00
24788;BME280;12883;52.662;5.196;2023-02-13T04:57:55;103775.53;;;7.65;100.00
24788;BME280;12883;52.662;5.196;2023-02-13T05:00:22;103761.78;;;7.60;100.00
24788;BME280;12883;52.662;5.196;2023-02-13T05:02:48;103766.88;;;7.63;100.00
24788;BME280;12883;52.662;5.196;2023-02-13T05:05:14;103778.94;;;7.67;100.00
24788;BME280;12883;52.662;5.196;2023-02-13T05:07:40;103776.16;;;7.69;100.00
24788;BME280;12883;52.662;5.196;2023-02-13T05:10:06;103767.19;;;7.71;100.00
24788;BME280;12883;52.662;5.196;2023-02-13T05:12:31;103771.75;;;7.69;100.00
24788;BME280;12883;52.662;5.196;2023-02-13T05:14:56;103770.34;;;7.64;100.00
24788;BME280;12883;52.662;5.196;2023-02-13T05:17:22;103763.09;;;7.67;100.00
24788;BME280;12883;52.662;5.196;2023-02-13T05:19:47;103766.22;;;7.72;100.00
24788;BME280;12883;52.662;5.196;2023-02-13T05:22:13;103761.16;;;7.69;100.00
24788;BME280;12883;52.662;5.196;2023-02-13T05:24:57;103759.47;;;7.68;100.00
24788;BME280;12883;52.662;5.196;2023-02-13T05:27:22;103765.81;;;7.66;100.00
24788;BME280;12883;52.662;5.196;2023-02-13T05:29:47;103781.59;;;7.67;100.00
24788;BME280;12883;52.662;5.196;2023-02-13T05:32:13;103761.78;;;7.60;100.00
24788;BME280;12883;52.662;5.196;2023-02-13T05:34:38;103764.97;;;7.65;100.00
24788;BME280;12883;52.662;5.196;2023-02-13T05:37:03;103765.94;;;7.64;100.00
24788;BME280;12883;52.662;5.196;2023-02-13T05:39:29;103737.38;;;7.57;100.00
24788;BME280;12883;52.662;5.196;2023-02-13T05:41:54;103774.59;;;7.79;100.00
24788;BME280;12883;52.662;5.196;2023-02-13T05:44:20;103768.88;;;7.72;100.00
24788;BME280;12883;52.662;5.196;2023-02-13T05:46:46;103764.78;;;7.68;100.00
24788;BME280;12883;52.662;5.196;2023-02-13T05:49:13;103759.25;;;7.71;100.00
24788;BME280;12883;52.662;5.196;2023-02-13T05:51:38;103765.16;;;7.75;100.00
24788;BME280;12883;52.662;5.196;2023-02-13T05:54:03;103770.56;;;7.73;100.00
24788;BME280;12883;52.662;5.196;2023-02-13T05:56:29;103739.09;;;7.45;100.00
24788;BME280;12883;52.662;5.196;2023-02-13T05:58:55;103769.00;;;7.71;100.00
24788;BME280;12883;52.662;5.196;2023-02-13T06:01:22;103774.16;;;7.72;100.00
24788;BME280;12883;52.662;5.196;2023-02-13T06:03:48;103768.13;;;7.70;100.00
24788;BME280;12883;52.662;5.196;2023-02-13T06:06:13;103754.19;;;7.68;100.00
24788;BME280;12883;52.662;5.196;2023-02-13T06:08:39;103765.06;;;7.76;100.00
24788;BME280;12883;52.662;5.196;2023-02-13T06:11:04;103749.53;;;7.59;100.00
24788;BME280;12883;52.662;5.196;2023-02-13T06:13:30;103778.72;;;7.70;100.00
24788;BME280;12883;52.662;5.196;2023-02-13T06:15:56;103780.19;;;7.62;100.00
24788;BME280;12883;52.662;5.196;2023-02-13T06:18:21;103778.81;;;7.69;100.00
24788;BME280;12883;52.662;5.196;2023-02-13T06:20:47;103772.78;;;7.67;100.00
24788;BME280;12883;52.662;5.196;2023-02-13T06:23:12;103768.78;;;7.74;100.00
24788;BME280;12883;52.662;5.196;2023-02-13T06:25:38;103732.44;;;7.40;100.00
24788;BME280;12883;52.662;5.196;2023-02-13T06:28:04;103777.56;;;7.74;100.00
24788;BME280;12883;52.662;5.196;2023-02-13T06:30:30;103784.94;;;7.69;100.00
24788;BME280;12883;52.662;5.196;2023-02-13T06:32:56;103788.41;;;7.70;100.00
24788;BME280;12883;52.662;5.196;2023-02-13T06:35:21;103784.09;;;7.69;100.00
24788;BME280;12883;52.662;5.196;2023-02-13T06:37:46;103772.16;;;7.63;100.00
24788;BME280;12883;52.662;5.196;2023-02-13T06:40:13;103777.41;;;7.76;100.00
24788;BME280;12883;52.662;5.196;2023-02-13T06:42:41;103744.47;;;7.56;100.00
24788;BME280;12883;52.662;5.196;2023-02-13T06:45:07;103766.66;;;7.66;100.00
24788;BME280;12883;52.662;5.196;2023-02-13T06:47:32;103768.56;;;7.64;100.00
24788;BME280;12883;52.662;5.196;2023-02-13T06:49:58;103772.16;;;7.63;100.00
24788;BME280;12883;52.662;5.196;2023-02-13T06:52:23;103768.88;;;7.72;100.00
24788;BME280;12883;52.662;5.196;2023-02-13T06:54:49;103779.88;;;7.66;100.00
24788;BME280;12883;52.662;5.196;2023-02-13T06:57:14;103774.09;;;7.61;100.00
24788;BME280;12883;52.662;5.196;2023-02-13T06:59:40;103767.84;;;7.62;100.00
24788;BME280;12883;52.662;5.196;2023-02-13T07:02:05;103786.72;;;7.69;100.00
24788;BME280;12883;52.662;5.196;2023-02-13T07:04:31;103780.63;;;7.68;100.00
24788;BME280;12883;52.662;5.196;2023-02-13T07:06:56;103791.19;;;7.68;100.00
24788;BME280;12883;52.662;5.196;2023-02-13T07:09:22;103792.84;;;7.82;100.00
24788;BME280;12883;52.662;5.196;2023-02-13T07:11:48;103783.34;;;7.79;100.00
24788;BME280;12883;52.662;5.196;2023-02-13T07:14:14;103788.31;;;7.71;100.00
24788;BME280;12883;52.662;5.196;2023-02-13T07:16:39;103793.84;;;7.68;100.00
24788;BME280;12883;52.662;5.196;2023-02-13T07:19:04;103795.44;;;7.71;100.00
24788;BME280;12883;52.662;5.196;2023-02-13T07:21:30;103792.66;;;7.72;100.00
24788;BME280;12883;52.662;5.196;2023-02-13T07:23:55;103795.72;;;7.66;100.00
24788;BME280;12883;52.662;5.196;2023-02-13T07:26:20;103805.13;;;7.70;100.00
24788;BME280;12883;52.662;5.196;2023-02-13T07:28:46;103812.34;;;7.68;100.00
24788;BME280;12883;52.662;5.196;2023-02-13T07:31:11;103820.91;;;7.72;100.00
24788;BME280;12883;52.662;5.196;2023-02-13T07:33:37;103815.06;;;7.67;100.00
24788;BME280;12883;52.662;5.196;2023-02-13T07:36:03;103820.13;;;7.70;100.00
24788;BME280;12883;52.662;5.196;2023-02-13T07:38:30;103822.25;;;7.77;100.00
24788;BME280;12883;52.662;5.196;2023-02-13T07:41:02;103822.69;;;7.71;100.00
24788;BME280;12883;52.662;5.196;2023-02-13T07:43:29;103817.19;;;7.74;100.00
24788;BME280;12883;52.662;5.196;2023-02-13T07:45:59;103815.81;;;7.81;100.00
24788;BME280;12883;52.662;5.196;2023-02-13T07:48:24;103815.72;;;7.70;100.00
24788;BME280;12883;52.662;5.196;2023-02-13T07:50:52;103818.88;;;7.75;100.00
24788;BME280;12883;52.662;5.196;2023-02-13T07:53:17;103778.53;;;7.48;100.00
24788;BME280;12883;52.662;5.196;2023-02-13T07:55:43;103813.78;;;7.72;100.00
24788;BME280;12883;52.662;5.196;2023-02-13T07:58:08;103820.47;;;7.78;100.00
24788;BME280;12883;52.662;5.196;2023-02-13T08:00:34;103801.75;;;7.68;100.00
24788;BME280;12883;52.662;5.196;2023-02-13T08:03:00;103822.66;;;7.84;100.00
24788;BME280;12883;52.662;5.196;2023-02-13T08:05:26;103805.78;;;7.74;100.00
24788;BME280;12883;52.662;5.196;2023-02-13T08:07:51;103819.19;;;7.83;100.00
24788;BME280;12883;52.662;5.196;2023-02-13T08:10:18;103802.69;;;7.80;100.00
24788;BME280;12883;52.662;5.196;2023-02-13T08:13:02;103820.66;;;7.87;100.00
24788;BME280;12883;52.662;5.196;2023-02-13T08:15:28;103812.41;;;7.92;100.00
24788;BME280;12883;52.662;5.196;2023-02-13T08:17:53;103813.56;;;7.88;100.00
24788;BME280;12883;52.662;5.196;2023-02-13T08:20:18;103818.00;;;7.87;100.00
24788;BME280;12883;52.662;5.196;2023-02-13T08:22:44;103820.34;;;7.92;100.00
24788;BME280;12883;52.662;5.196;2023-02-13T08:25:09;103817.38;;;7.96;100.00
24788;BME280;12883;52.662;5.196;2023-02-13T08:27:35;103824.13;;;8.00;100.00
24788;BME280;12883;52.662;5.196;2023-02-13T08:30:00;103828.56;;;8.00;100.00
24788;BME280;12883;52.662;5.196;2023-02-13T08:32:28;103820.03;;;7.96;100.00
24788;BME280;12883;52.662;5.196;2023-02-13T08:34:54;103820.75;;;7.98;100.00
24788;BME280;12883;52.662;5.196;2023-02-13T08:37:19;103828.34;;;8.03;100.00
24788;BME280;12883;52.662;5.196;2023-02-13T08:39:44;103826.84;;;8.11;100.00
24788;BME280;12883;52.662;5.196;2023-02-13T08:42:10;103823.25;;;8.12;100.00
24788;BME280;12883;52.662;5.196;2023-02-13T08:44:35;103830.88;;;8.04;100.00
24788;BME280;12883;52.662;5.196;2023-02-13T08:47:01;103828.53;;;8.12;100.00
24788;BME280;12883;52.662;5.196;2023-02-13T08:49:29;103824.94;;;8.13;100.00
24788;BME280;12883;52.662;5.196;2023-02-13T08:51:54;103820.50;;;8.14;100.00
24788;BME280;12883;52.662;5.196;2023-02-13T08:54:19;103825.91;;;8.12;100.00
24788;BME280;12883;52.662;5.196;2023-02-13T08:56:45;103822.81;;;8.18;100.00
24788;BME280;12883;52.662;5.196;2023-02-13T08:59:10;103820.50;;;8.14;100.00
24788;BME280;12883;52.662;5.196;2023-02-13T09:01:35;103811.72;;;8.13;100.00
24788;BME280;12883;52.662;5.196;2023-02-13T09:04:01;103822.63;;;8.21;100.00
24788;BME280;12883;52.662;5.196;2023-02-13T09:06:26;103834.69;;;8.13;100.00
24788;BME280;12883;52.662;5.196;2023-02-13T09:08:53;103820.94;;;8.20;100.00
24788;BME280;12883;52.662;5.196;2023-02-13T09:11:18;103826.22;;;8.20;100.00
24788;BME280;12883;52.662;5.196;2023-02-13T09:13:46;103827.28;;;8.30;100.00
24788;BME280;12883;52.662;5.196;2023-02-13T09:16:12;103796.53;;;8.04;100.00
24788;BME280;12883;52.662;5.196;2023-02-13T09:18:37;103820.06;;;8.32;100.00
24788;BME280;12883;52.662;5.196;2023-02-13T09:21:06;103816.91;;;8.27;100.00
24788;BME280;12883;52.662;5.196;2023-02-13T09:23:33;103818.13;;;8.34;100.00
24788;BME280;12883;52.662;5.196;2023-02-13T09:26:00;103818.13;;;8.34;100.00
24788;BME280;12883;52.662;5.196;2023-02-13T09:28:28;103825.34;;;8.32;100.00
24788;BME280;12883;52.662;5.196;2023-02-13T09:30:54;103824.28;;;8.35;100.00
24788;BME280;12883;52.662;5.196;2023-02-13T09:33:19;103814.34;;;8.38;100.00
24788;BME280;12883;52.662;5.196;2023-02-13T09:35:44;103815.94;;;8.28;100.00
24788;BME280;12883;52.662;5.196;2023-02-13T09:38:10;103823.22;;;8.37;100.00
24788;BME280;12883;52.662;5.196;2023-02-13T09:40:51;103830.41;;;8.35;100.00
24788;BME280;12883;52.662;5.196;2023-02-13T09:43:29;103821.81;;;8.44;100.00
24788;BME280;12883;52.662;5.196;2023-02-13T09:45:58;103821.69;;;8.46;100.00
24788;BME280;12883;52.662;5.196;2023-02-13T09:48:31;103821.69;;;8.46;100.00
24788;BME280;12883;52.662;5.196;2023-02-13T09:50:58;103819.66;;;8.49;100.00
24788;BME280;12883;52.662;5.196;2023-02-13T09:53:26;103791.91;;;8.31;100.00
24788;BME280;12883;52.662;5.196;2023-02-13T09:58:50;103807.69;;;8.56;100.00
24788;BME280;12883;52.662;5.196;2023-02-13T10:01:32;103811.28;;;8.55;100.00
24788;BME280;12883;52.662;5.196;2023-02-13T10:06:48;103818.44;;;8.66;100.00
24788;BME280;12883;52.662;5.196;2023-02-13T10:09:28;103844.69;;;8.69;100.00
24788;BME280;12883;52.662;5.196;2023-02-13T10:12:16;103824.13;;;8.72;100.00
24788;BME280;12883;52.662;5.196;2023-02-13T10:14:57;103827.84;;;8.70;100.00
24788;BME280;12883;52.662;5.196;2023-02-13T10:17:31;103764.88;;;8.39;100.00
24788;BME280;12883;52.662;5.196;2023-02-13T10:20:16;103817.44;;;8.79;100.00
24788;BME280;12883;52.662;5.196;2023-02-13T10:22:50;103824.06;;;8.85;100.00
24788;BME280;12883;52.662;5.196;2023-02-13T10:25:24;103809.03;;;8.85;100.00
24788;BME280;12883;52.662;5.196;2023-02-13T10:28:11;103832.56;;;8.77;100.00
24788;BME280;12883;52.662;5.196;2023-02-13T10:30:49;103815.84;;;8.77;100.00
24788;BME280;12883;52.662;5.196;2023-02-13T10:33:27;103813.94;;;8.79;100.00
24788;BME280;12883;52.662;5.196;2023-02-13T10:36:16;103821.75;;;8.80;100.00
24788;BME280;12883;52.662;5.196;2023-02-13T10:41:54;103809.66;;;8.89;100.00
24788;BME280;12883;52.662;5.196;2023-02-13T10:44:46;103807.09;;;8.87;100.00
24788;BME280;12883;52.662;5.196;2023-02-13T10:48:01;103807.09;;;8.87;100.00
24788;BME280;12883;52.662;5.196;2023-02-13T10:56:06;103800.66;;;9.02;100.00
24788;BME280;12883;52.662;5.196;2023-02-13T11:01:52;103799.31;;;8.97;100.00
24788;BME280;12883;52.662;5.196;2023-02-13T11:04:19;103793.06;;;8.98;100.00
24788;BME280;12883;52.662;5.196;2023-02-13T11:06:56;103785.00;;;8.99;100.00
24788;BME280;12883;52.662;5.196;2023-02-13T11:09:23;103792.47;;;9.05;100.00
24788;BME280;12883;52.662;5.196;2023-02-13T11:11:49;103779.63;;;9.12;100.00
24788;BME280;12883;52.662;5.196;2023-02-13T11:14:18;103768.31;;;9.10;100.00
24788;BME280;12883;52.662;5.196;2023-02-13T11:16:58;103773.34;;;9.13;100.00
24788;BME280;12883;52.662;5.196;2023-02-13T11:19:28;103773.34;;;9.13;100.00
24788;BME280;12883;52.662;5.196;2023-02-13T11:22:02;103759.84;;;9.16;100.00
24788;BME280;12883;52.662;5.196;2023-02-13T11:24:28;103761.44;;;9.18;100.00
24788;BME280;12883;52.662;5.196;2023-02-13T11:27:00;103746.00;;;9.12;100.00
24788;BME280;12883;52.662;5.196;2023-02-13T11:29:30;103754.69;;;9.25;100.00
24788;BME280;12883;52.662;5.196;2023-02-13T11:32:06;103748.56;;;9.36;100.00
24788;BME280;12883;52.662;5.196;2023-02-13T11:34:36;103754.72;;;9.36;100.00
24788;BME280;12883;52.662;5.196;2023-02-13T11:39:36;103752.81;;;9.49;100.00
24788;BME280;12883;52.662;5.196;2023-02-13T11:42:01;103748.47;;;9.59;100.00
24788;BME280;12883;52.662;5.196;2023-02-13T11:44:29;103752.31;;;9.66;100.00
24788;BME280;12883;52.662;5.196;2023-02-13T11:46:57;103780.16;;;9.60;100.00
24788;BME280;12883;52.662;5.196;2023-02-13T11:49:25;103755.72;;;9.68;100.00
24788;BME280;12883;52.662;5.196;2023-02-13T11:51:56;103750.88;;;9.73;100.00
24788;BME280;12883;52.662;5.196;2023-02-13T11:57:19;103758.59;;;9.76;100.00
24788;BME280;12883;52.662;5.196;2023-02-13T11:59:46;103754.34;;;9.84;100.00
24788;BME280;12883;52.662;5.196;2023-02-13T12:02:15;103752.56;;;9.96;100.00
24788;BME280;12883;52.662;5.196;2023-02-13T12:04:41;103748.94;;;9.97;100.00
24788;BME280;12883;52.662;5.196;2023-02-13T12:10:37;103751.56;;;10.08;100.00
24788;BME280;12883;52.662;5.196;2023-02-13T12:12:42;103746.53;;;10.05;100.00
24788;BME280;12883;52.662;5.196;2023-02-13T12:15:35;103746.63;;;10.03;100.00
24788;BME280;12883;52.662;5.196;2023-02-13T12:29:04;103749.50;;;10.22;100.00
24788;BME280;12883;52.662;5.196;2023-02-13T12:43:38;103745.63;;;10.26;100.00
24788;BME280;12883;52.662;5.196;2023-02-13T12:46:20;103726.09;;;10.27;100.00
24788;BME280;12883;52.662;5.196;2023-02-13T12:48:51;103731.94;;;10.42;100.00
24788;BME280;12883;52.662;5.196;2023-02-13T13:05:44;103711.94;;;10.38;100.00
24788;BME280;12883;52.662;5.196;2023-02-13T13:16:59;103692.91;;;10.22;100.00
24788;BME280;12883;52.662;5.196;2023-02-13T13:22:44;103691.59;;;10.27;100.00
24788;BME280;12883;52.662;5.196;2023-02-13T13:28:01;103681.09;;;10.26;100.00
24788;BME280;12883;52.662;5.196;2023-02-13T13:30:31;103682.94;;;10.46;100.00
24788;BME280;12883;52.662;5.196;2023-02-13T13:33:13;103680.31;;;10.35;100.00
24788;BME280;12883;52.662;5.196;2023-02-13T13:35:47;103670.22;;;10.29;100.00
24788;BME280;12883;52.662;5.196;2023-02-13T13:41:26;103662.00;;;10.32;100.00
24788;BME280;12883;52.662;5.196;2023-02-13T13:47:31;103666.22;;;10.34;100.00
24788;BME280;12883;52.662;5.196;2023-02-13T13:50:03;103656.59;;;10.33;100.00
24788;BME280;12883;52.662;5.196;2023-02-13T13:52:35;103651.19;;;10.44;100.00
24788;BME280;12883;52.662;5.196;2023-02-13T13:55:04;103659.56;;;10.40;100.00
24788;BME280;12883;52.662;5.196;2023-02-13T14:02:48;103651.13;;;10.35;100.00
24788;BME280;12883;52.662;5.196;2023-02-13T14:07:51;103648.63;;;10.33;100.00
24788;BME280;12883;52.662;5.196;2023-02-13T14:12:47;103633.91;;;10.29;100.00
24788;BME280;12883;52.662;5.196;2023-02-13T14:18:18;103629.47;;;10.30;100.00
24788;BME280;12883;52.662;5.196;2023-02-13T14:28:55;103572.25;;;9.74;100.00
24788;BME280;12883;52.662;5.196;2023-02-13T14:31:25;103634.69;;;10.20;100.00
24788;BME280;12883;52.662;5.196;2023-02-13T14:34:02;103611.69;;;9.99;100.00
24788;BME280;12883;52.662;5.196;2023-02-13T14:36:37;103624.91;;;10.21;100.00
24788;BME280;12883;52.662;5.196;2023-02-13T14:46:44;103627.25;;;10.03;100.00
24788;BME280;12883;52.662;5.196;2023-02-13T14:49:16;103624.09;;;9.98;100.00
24788;BME280;12883;52.662;5.196;2023-02-13T14:51:46;103624.69;;;10.02;100.00
24788;BME280;12883;52.662;5.196;2023-02-13T14:54:26;103621.97;;;10.03;100.00
24788;BME280;12883;52.662;5.196;2023-02-13T14:56:59;103638.84;;;9.91;100.00
24788;BME280;12883;52.662;5.196;2023-02-13T14:59:33;103567.72;;;9.65;100.00
24788;BME280;12883;52.662;5.196;2023-02-13T15:02:20;103617.63;;;9.91;100.00
24788;BME280;12883;52.662;5.196;2023-02-13T15:04:53;103637.44;;;9.87;100.00
24788;BME280;12883;52.662;5.196;2023-02-13T15:07:25;103616.59;;;9.83;100.00
24788;BME280;12883;52.662;5.196;2023-02-13T15:09:58;103617.31;;;9.85;100.00
24788;BME280;12883;52.662;5.196;2023-02-13T15:12:30;103612.50;;;9.79;100.00
24788;BME280;12883;52.662;5.196;2023-02-13T15:14:56;103609.84;;;9.79;100.00
24788;BME280;12883;52.662;5.196;2023-02-13T15:17:25;103615.63;;;9.84;100.00
24788;BME280;12883;52.662;5.196;2023-02-13T15:19:53;103611.41;;;9.81;100.00
24788;BME280;12883;52.662;5.196;2023-02-13T15:22:34;103614.06;;;9.70;100.00
24788;BME280;12883;52.662;5.196;2023-02-13T15:25:00;103605.50;;;9.78;100.00
24788;BME280;12883;52.662;5.196;2023-02-13T15:27:28;103603.94;;;9.75;100.00
24788;BME280;12883;52.662;5.196;2023-02-13T15:29:57;103605.28;;;9.70;100.00
24788;BME280;12883;52.662;5.196;2023-02-13T15:32:29;103606.97;;;9.71;100.00
24788;BME280;12883;52.662;5.196;2023-02-13T15:34:55;103603.16;;;9.64;100.00
24788;BME280;12883;52.662;5.196;2023-02-13T15:37:27;103604.13;;;9.63;100.00